createdAt,value
2023-04-16T00:00:13.516Z,94872.00
2023-04-16T00:01:13.606Z,94870.00
2023-04-16T00:02:13.774Z,94874.00
2023-04-16T00:03:13.823Z,94872.00
2023-04-16T00:04:13.798Z,94876.00
2023-04-16T00:05:13.924Z,94876.00
2023-04-16T00:06:13.878Z,94874.00
2023-04-16T00:07:13.933Z,94872.00
2023-04-16T00:08:13.975Z,94872.00
2023-04-16T00:09:14.053Z,94876.00
2023-04-16T00:10:14.933Z,94872.00
2023-04-16T00:11:14.124Z,94885.00
2023-04-16T00:12:14.188Z,94885.00
2023-04-16T00:13:14.201Z,94874.00
2023-04-16T00:14:14.197Z,94874.00
2023-04-16T00:15:14.201Z,94872.00
2023-04-16T00:16:14.293Z,94872.00
2023-04-16T00:17:14.306Z,94872.00
2023-04-16T00:18:14.341Z,94872.00
2023-04-16T00:19:14.374Z,94872.00
2023-04-16T00:20:14.467Z,94874.00
2023-04-16T00:21:14.459Z,94874.00
2023-04-16T00:22:14.454Z,94870.00
2023-04-16T00:23:14.482Z,94874.00
2023-04-16T00:24:14.517Z,94872.00
2023-04-16T00:25:14.524Z,94874.00
2023-04-16T00:26:14.519Z,94878.00
2023-04-16T00:27:14.543Z,94878.00
2023-04-16T00:28:14.571Z,94874.00
2023-04-16T00:29:14.561Z,94878.00
2023-04-16T00:30:14.567Z,94885.00
2023-04-16T00:31:14.639Z,94878.00
2023-04-16T00:32:14.513Z,94878.00
2023-04-16T00:33:14.593Z,94878.00
2023-04-16T00:34:14.617Z,94878.00
2023-04-16T00:35:14.642Z,94878.00
2023-04-16T00:36:14.624Z,94878.00
2023-04-16T00:37:14.657Z,94885.00
2023-04-16T00:38:14.698Z,94885.00
2023-04-16T00:39:14.841Z,94874.00
2023-04-16T00:40:14.718Z,94876.00
2023-04-16T00:41:14.712Z,94876.00
2023-04-16T00:42:14.810Z,94874.00
2023-04-16T00:43:14.737Z,94876.00
2023-04-16T00:44:14.761Z,94872.00
2023-04-16T00:45:14.838Z,94878.00
2023-04-16T00:46:14.953Z,94887.00
2023-04-16T00:47:15.108Z,94885.00
2023-04-16T00:48:15.045Z,94887.00
2023-04-16T00:49:15.041Z,94893.00
2023-04-16T00:50:15.142Z,94889.00
2023-04-16T00:51:15.240Z,94891.00
2023-04-16T00:52:15.258Z,94891.00
2023-04-16T00:53:15.326Z,94889.00
2023-04-16T00:54:15.368Z,94893.00
2023-04-16T00:55:15.444Z,94891.00
2023-04-16T00:56:15.918Z,94891.00
2023-04-16T00:57:15.581Z,94891.00
2023-04-16T00:58:15.605Z,94885.00
2023-04-16T00:59:15.620Z,94885.00
2023-04-16T01:00:15.630Z,94887.00
2023-04-16T01:01:15.661Z,94889.00
2023-04-16T01:02:15.726Z,94891.00
2023-04-16T01:03:15.822Z,94889.00
2023-04-16T01:04:15.781Z,94887.00
2023-04-16T01:05:15.686Z,94891.00
2023-04-16T01:06:15.789Z,94889.00
2023-04-16T01:07:15.800Z,94885.00
2023-04-16T01:08:15.852Z,94887.00
2023-04-16T01:09:15.915Z,94878.00
2023-04-16T01:10:15.950Z,94889.00
2023-04-16T01:11:15.958Z,94876.00
2023-04-16T01:12:15.978Z,94885.00
2023-04-16T01:13:15.987Z,94874.00
2023-04-16T01:14:16.013Z,94874.00
2023-04-16T01:15:16.057Z,94876.00
2023-04-16T01:16:16.123Z,94876.00
2023-04-16T01:17:16.076Z,94878.00
2023-04-16T01:18:16.073Z,94885.00
2023-04-16T01:19:16.148Z,94878.00
2023-04-16T01:20:16.168Z,94887.00
2023-04-16T01:21:16.200Z,94889.00
2023-04-16T01:22:16.242Z,94885.00
2023-04-16T01:23:16.212Z,94885.00
2023-04-16T01:24:16.229Z,94885.00
2023-04-16T01:25:16.247Z,94885.00
2023-04-16T01:26:16.287Z,94885.00
2023-04-16T01:27:16.280Z,94887.00
2023-04-16T01:28:16.202Z,94889.00
2023-04-16T01:29:16.278Z,94889.00
2023-04-16T01:30:16.321Z,94891.00
2023-04-16T01:31:16.425Z,94895.00
2023-04-16T01:32:16.530Z,94893.00
2023-04-16T01:33:16.507Z,94891.00
2023-04-16T01:34:16.500Z,94893.00
2023-04-16T01:35:16.535Z,94889.00
2023-04-16T01:36:16.583Z,94891.00
2023-04-16T01:37:16.570Z,94893.00
2023-04-16T01:38:16.602Z,94895.00
2023-04-16T01:39:16.639Z,94897.00
2023-04-16T01:40:16.632Z,94895.00
2023-04-16T01:41:16.586Z,94895.00
2023-04-16T01:42:16.601Z,94897.00
2023-04-16T01:43:16.676Z,94895.00
2023-04-16T01:44:16.677Z,94899.00
2023-04-16T01:45:16.642Z,94903.00
2023-04-16T01:46:16.686Z,94901.00
2023-04-16T01:47:16.681Z,94897.00
2023-04-16T01:48:16.727Z,94899.00
2023-04-16T01:49:16.726Z,94901.00
2023-04-16T01:50:16.798Z,94901.00
2023-04-16T01:51:16.805Z,94903.00
2023-04-16T01:52:16.844Z,94903.00
2023-04-16T01:53:16.922Z,94903.00
2023-04-16T01:54:16.953Z,94903.00
2023-04-16T01:55:16.977Z,94903.00
2023-04-16T01:56:16.988Z,94907.00
2023-04-16T01:57:16.987Z,94905.00
2023-04-16T01:58:17.050Z,94905.00
2023-04-16T01:59:17.133Z,94909.00
2023-04-16T02:00:17.208Z,94911.00
2023-04-16T02:01:17.249Z,94911.00
2023-04-16T02:02:17.424Z,94907.00
2023-04-16T02:03:17.510Z,94911.00
2023-04-16T02:04:17.436Z,94913.00
2023-04-16T02:05:17.516Z,94913.00
2023-04-16T02:06:17.515Z,94911.00
2023-04-16T02:07:17.502Z,94909.00
2023-04-16T02:08:17.492Z,94909.00
2023-04-16T02:09:17.510Z,94905.00
2023-04-16T02:10:17.543Z,94905.00
2023-04-16T02:11:17.535Z,94907.00
2023-04-16T02:12:17.603Z,94907.00
2023-04-16T02:13:17.710Z,94911.00
2023-04-16T02:14:17.823Z,94911.00
2023-04-16T02:15:17.930Z,94911.00
2023-04-16T02:16:18.018Z,94911.00
2023-04-16T02:17:17.957Z,94909.00
2023-04-16T02:18:18.013Z,94909.00
2023-04-16T02:19:18.060Z,94911.00
2023-04-16T02:20:18.164Z,94911.00
2023-04-16T02:21:18.164Z,94915.00
2023-04-16T02:22:18.229Z,94915.00
2023-04-16T02:23:18.308Z,94917.00
2023-04-16T02:24:18.363Z,94917.00
2023-04-16T02:25:18.397Z,94915.00
2023-04-16T02:26:18.454Z,94913.00
2023-04-16T02:27:18.455Z,94915.00
2023-04-16T02:28:18.474Z,94917.00
2023-04-16T02:29:18.526Z,94919.00
2023-04-16T02:30:18.600Z,94915.00
2023-04-16T02:31:18.712Z,94915.00
2023-04-16T02:32:18.720Z,94915.00
2023-04-16T02:33:18.791Z,94915.00
2023-04-16T02:34:18.829Z,94915.00
2023-04-16T02:35:18.901Z,94917.00
2023-04-16T02:36:18.923Z,94919.00
2023-04-16T02:37:18.996Z,94919.00
2023-04-16T02:38:18.974Z,94923.00
2023-04-16T02:39:18.968Z,94917.00
2023-04-16T02:40:18.998Z,94921.00
2023-04-16T02:41:18.971Z,94923.00
2023-04-16T02:42:19.037Z,94921.00
2023-04-16T02:43:18.998Z,94921.00
2023-04-16T02:44:18.944Z,94921.00
2023-04-16T02:45:18.973Z,94925.00
2023-04-16T02:46:19.080Z,94923.00
2023-04-16T02:47:18.997Z,94927.00
2023-04-16T02:48:19.009Z,94929.00
2023-04-16T02:49:19.082Z,94931.00
2023-04-16T02:50:19.191Z,94925.00
2023-04-16T02:51:19.191Z,94923.00
2023-04-16T02:52:19.210Z,94927.00
2023-04-16T02:53:19.250Z,94927.00
2023-04-16T02:54:19.258Z,94925.00
2023-04-16T02:55:19.385Z,94923.00
2023-04-16T02:56:19.393Z,94925.00
2023-04-16T02:57:19.406Z,94927.00
2023-04-16T02:58:19.492Z,94929.00
2023-04-16T02:59:19.601Z,94927.00
2023-04-16T03:00:19.623Z,94929.00
2023-04-16T03:01:19.661Z,94931.00
2023-04-16T03:02:19.675Z,94927.00
2023-04-16T03:03:19.716Z,94931.00
2023-04-16T03:04:19.736Z,94934.00
2023-04-16T03:05:19.682Z,94936.00
2023-04-16T03:06:19.667Z,94938.00
2023-04-16T03:07:19.718Z,94940.00
2023-04-16T03:08:19.706Z,94938.00
2023-04-16T03:09:19.737Z,94940.00
2023-04-16T03:10:19.746Z,94938.00
2023-04-16T03:11:19.766Z,94942.00
2023-04-16T03:12:19.771Z,94938.00
2023-04-16T03:13:19.798Z,94942.00
2023-04-16T03:14:19.820Z,94944.00
2023-04-16T03:15:19.852Z,94942.00
2023-04-16T03:16:20.221Z,94938.00
2023-04-16T03:17:19.932Z,94940.00
2023-04-16T03:18:20.028Z,94944.00
2023-04-16T03:19:20.114Z,94946.00
2023-04-16T03:20:20.312Z,94942.00
2023-04-16T03:21:20.283Z,94942.00
2023-04-16T03:22:20.294Z,94944.00
2023-04-16T03:23:20.284Z,94946.00
2023-04-16T03:24:20.372Z,94948.00
2023-04-16T03:25:20.326Z,94946.00
2023-04-16T03:26:20.310Z,94946.00
2023-04-16T03:27:20.366Z,94950.00
2023-04-16T03:28:20.418Z,94946.00
2023-04-16T03:29:20.368Z,94942.00
2023-04-16T03:30:20.410Z,94942.00
2023-04-16T03:31:20.431Z,94936.00
2023-04-16T03:32:20.554Z,94936.00
2023-04-16T03:33:20.466Z,94940.00
2023-04-16T03:34:20.497Z,94942.00
2023-04-16T03:35:20.511Z,94938.00
2023-04-16T03:36:20.542Z,94938.00
2023-04-16T03:37:20.575Z,94936.00
2023-04-16T03:38:20.538Z,94936.00
2023-04-16T03:39:20.628Z,94938.00
2023-04-16T03:40:20.591Z,94942.00
2023-04-16T03:41:20.579Z,94944.00
2023-04-16T03:42:20.606Z,94942.00
2023-04-16T03:43:20.682Z,94946.00
2023-04-16T03:44:20.756Z,94948.00
2023-04-16T03:45:20.820Z,94946.00
2023-04-16T03:46:21.032Z,94948.00
2023-04-16T03:47:20.973Z,94946.00
2023-04-16T03:48:20.966Z,94946.00
2023-04-16T03:49:21.126Z,94948.00
2023-04-16T03:50:21.174Z,94952.00
2023-04-16T03:51:21.174Z,94950.00
2023-04-16T03:52:21.180Z,94952.00
2023-04-16T03:53:21.216Z,94956.00
2023-04-16T03:54:22.742Z,94956.00
2023-04-16T03:55:21.188Z,94956.00
2023-04-16T03:56:21.216Z,94954.00
2023-04-16T03:57:21.197Z,94956.00
2023-04-16T03:58:21.199Z,94954.00
2023-04-16T03:59:21.255Z,94956.00
2023-04-16T04:00:21.574Z,94958.00
2023-04-16T04:01:21.210Z,94954.00
2023-04-16T04:02:21.393Z,94956.00
2023-04-16T04:03:22.309Z,94956.00
2023-04-16T04:04:21.341Z,94958.00
2023-04-16T04:05:21.306Z,94958.00
2023-04-16T04:06:21.333Z,94958.00
2023-04-16T04:07:21.380Z,94954.00
2023-04-16T04:08:21.426Z,94960.00
2023-04-16T04:09:21.500Z,94958.00
2023-04-16T04:10:21.510Z,94960.00
2023-04-16T04:11:21.560Z,94966.00
2023-04-16T04:12:21.596Z,94962.00
2023-04-16T04:13:21.643Z,94968.00
2023-04-16T04:14:21.701Z,94968.00
2023-04-16T04:15:21.751Z,94970.00
2023-04-16T04:16:21.876Z,94970.00
2023-04-16T04:17:21.765Z,94966.00
2023-04-16T04:18:21.773Z,94966.00
2023-04-16T04:19:21.783Z,94968.00
2023-04-16T04:20:21.754Z,94966.00
2023-04-16T04:21:21.773Z,94968.00
2023-04-16T04:22:21.776Z,94970.00
2023-04-16T04:23:21.782Z,94970.00
2023-04-16T04:24:21.816Z,94970.00
2023-04-16T04:25:21.840Z,94972.00
2023-04-16T04:26:21.882Z,94976.00
2023-04-16T04:27:21.817Z,94978.00
2023-04-16T04:28:21.862Z,94976.00
2023-04-16T04:29:21.871Z,94978.00
2023-04-16T04:30:21.921Z,94978.00
2023-04-16T04:31:21.892Z,94979.00
2023-04-16T04:32:21.997Z,94979.00
2023-04-16T04:33:21.976Z,94978.00
2023-04-16T04:34:22.023Z,94976.00
2023-04-16T04:35:22.056Z,94979.00
2023-04-16T04:36:22.005Z,94983.00
2023-04-16T04:37:22.068Z,94985.00
2023-04-16T04:38:22.109Z,94985.00
2023-04-16T04:39:22.094Z,94987.00
2023-04-16T04:40:22.205Z,94989.00
2023-04-16T04:41:22.099Z,94991.00
2023-04-16T04:42:22.115Z,94991.00
2023-04-16T04:43:22.059Z,94991.00
2023-04-16T04:44:22.060Z,94995.00
2023-04-16T04:45:22.070Z,94997.00
2023-04-16T04:46:22.271Z,94995.00
2023-04-16T04:47:22.151Z,94995.00
2023-04-16T04:48:22.180Z,94999.00
2023-04-16T04:49:22.155Z,94997.00
2023-04-16T04:50:22.197Z,94999.00
2023-04-16T04:51:22.217Z,94997.00
2023-04-16T04:52:22.183Z,94999.00
2023-04-16T04:53:22.240Z,95001.00
2023-04-16T04:54:22.321Z,95003.00
2023-04-16T04:55:22.395Z,95003.00
2023-04-16T04:56:22.412Z,95001.00
2023-04-16T04:57:22.419Z,95001.00
2023-04-16T04:58:22.426Z,94999.00
2023-04-16T04:59:22.460Z,95001.00
2023-04-16T05:00:22.512Z,95001.00
2023-04-16T05:01:22.488Z,95003.00
2023-04-16T05:02:22.612Z,95001.00
2023-04-16T05:03:22.688Z,95001.00
2023-04-16T05:04:22.500Z,95005.00
2023-04-16T05:05:22.545Z,95001.00
2023-04-16T05:06:23.476Z,95005.00
2023-04-16T05:07:22.503Z,95003.00
2023-04-16T05:08:22.503Z,95005.00
2023-04-16T05:09:22.523Z,95007.00
2023-04-16T05:10:22.511Z,95009.00
2023-04-16T05:11:22.537Z,95009.00
2023-04-16T05:12:22.564Z,95011.00
2023-04-16T05:13:22.554Z,95011.00
2023-04-16T05:14:22.601Z,95009.00
2023-04-16T05:15:22.619Z,95011.00
2023-04-16T05:16:22.738Z,95011.00
2023-04-16T05:17:22.722Z,95015.00
2023-04-16T05:18:22.732Z,95017.00
2023-04-16T05:19:22.786Z,95017.00
2023-04-16T05:20:22.876Z,95021.00
2023-04-16T05:21:22.884Z,95019.00
2023-04-16T05:22:22.946Z,95019.00
2023-04-16T05:23:23.000Z,95017.00
2023-04-16T05:24:23.063Z,95023.00
2023-04-16T05:25:23.161Z,95023.00
2023-04-16T05:26:23.186Z,95023.00
2023-04-16T05:27:23.249Z,95021.00
2023-04-16T05:28:23.305Z,95025.00
2023-04-16T05:29:23.343Z,95026.00
2023-04-16T05:30:23.395Z,95026.00
2023-04-16T05:31:23.483Z,95026.00
2023-04-16T05:32:23.521Z,95028.00
2023-04-16T05:33:24.056Z,95032.00
2023-04-16T05:34:23.607Z,95030.00
2023-04-16T05:35:23.638Z,95034.00
2023-04-16T05:36:23.645Z,95032.00
2023-04-16T05:37:23.727Z,95036.00
2023-04-16T05:38:23.785Z,95034.00
2023-04-16T05:39:23.962Z,95036.00
2023-04-16T05:40:23.923Z,95036.00
2023-04-16T05:41:23.952Z,95038.00
2023-04-16T05:42:24.052Z,95036.00
2023-04-16T05:43:24.050Z,95040.00
2023-04-16T05:44:24.100Z,95040.00
2023-04-16T05:45:25.127Z,95040.00
2023-04-16T05:46:24.147Z,95038.00
2023-04-16T05:47:24.159Z,95040.00
2023-04-16T05:48:24.166Z,95042.00
2023-04-16T05:49:24.180Z,95040.00
2023-04-16T05:50:24.214Z,95042.00
2023-04-16T05:51:24.216Z,95042.00
2023-04-16T05:52:24.241Z,95046.00
2023-04-16T05:53:24.258Z,95044.00
2023-04-16T05:54:24.327Z,95046.00
2023-04-16T05:55:24.381Z,95050.00
2023-04-16T05:56:24.431Z,95052.00
2023-04-16T05:57:24.481Z,95050.00
2023-04-16T05:58:24.560Z,95054.00
2023-04-16T05:59:24.592Z,95058.00
2023-04-16T06:00:24.592Z,95056.00
2023-04-16T06:01:24.629Z,95058.00
2023-04-16T06:02:24.797Z,95058.00
2023-04-16T06:03:24.708Z,95058.00
2023-04-16T06:04:24.658Z,95060.00
2023-04-16T06:05:24.742Z,95058.00
2023-04-16T06:06:24.775Z,95062.00
2023-04-16T06:07:24.776Z,95062.00
2023-04-16T06:08:24.861Z,95068.00
2023-04-16T06:09:24.902Z,95064.00
2023-04-16T06:10:24.939Z,95064.00
2023-04-16T06:11:24.937Z,95062.00
2023-04-16T06:12:25.066Z,95060.00
2023-04-16T06:13:25.069Z,95064.00
2023-04-16T06:14:25.139Z,95062.00
2023-04-16T06:15:25.143Z,95064.00
2023-04-16T06:16:25.294Z,95068.00
2023-04-16T06:17:25.306Z,95064.00
2023-04-16T06:18:25.283Z,95068.00
2023-04-16T06:19:25.332Z,95068.00
2023-04-16T06:20:25.426Z,95070.00
2023-04-16T06:21:25.348Z,95066.00
2023-04-16T06:22:25.441Z,95066.00
2023-04-16T06:23:25.460Z,95072.00
2023-04-16T06:24:25.551Z,95070.00
2023-04-16T06:25:25.588Z,95068.00
2023-04-16T06:26:25.645Z,95068.00
2023-04-16T06:27:25.726Z,95066.00
2023-04-16T06:28:25.796Z,95066.00
2023-04-16T06:29:37.074Z,95070.00
2023-04-16T06:30:26.798Z,95070.00
2023-04-16T06:31:25.792Z,95070.00
2023-04-16T06:32:25.788Z,95074.00
2023-04-16T06:33:25.778Z,95070.00
2023-04-16T06:34:25.783Z,95072.00
2023-04-16T06:35:25.776Z,95072.00
2023-04-16T06:36:25.753Z,95072.00
2023-04-16T06:37:25.707Z,95074.00
2023-04-16T06:38:25.719Z,95072.00
2023-04-16T06:39:25.984Z,95072.00
2023-04-16T06:40:25.740Z,95072.00
2023-04-16T06:41:25.746Z,95072.00
2023-04-16T06:42:25.698Z,95068.00
2023-04-16T06:43:25.717Z,95072.00
2023-04-16T06:44:25.669Z,95066.00
2023-04-16T06:45:25.733Z,95068.00
2023-04-16T06:46:25.796Z,95070.00
2023-04-16T06:47:25.851Z,95068.00
2023-04-16T06:48:25.791Z,95068.00
2023-04-16T06:49:25.798Z,95070.00
2023-04-16T06:50:25.898Z,95070.00
2023-04-16T06:51:25.912Z,95066.00
2023-04-16T06:52:25.920Z,95068.00
2023-04-16T06:53:26.037Z,95066.00
2023-04-16T06:54:25.958Z,95066.00
2023-04-16T06:55:25.985Z,95068.00
2023-04-16T06:56:26.004Z,95068.00
2023-04-16T06:57:26.123Z,95070.00
2023-04-16T06:58:26.147Z,95068.00
2023-04-16T06:59:26.199Z,95066.00
2023-04-16T07:00:26.249Z,95068.00
2023-04-16T07:01:26.283Z,95064.00
2023-04-16T07:02:26.398Z,95068.00
2023-04-16T07:03:26.489Z,95064.00
2023-04-16T07:04:26.418Z,95066.00
2023-04-16T07:05:26.484Z,95066.00
2023-04-16T07:06:26.417Z,95064.00
2023-04-16T07:07:26.446Z,95068.00
2023-04-16T07:08:26.465Z,95068.00
2023-04-16T07:09:26.502Z,95076.00
2023-04-16T07:10:26.512Z,95072.00
2023-04-16T07:11:26.577Z,95076.00
2023-04-16T07:12:26.633Z,95076.00
2023-04-16T07:13:26.760Z,95078.00
2023-04-16T07:14:26.742Z,95078.00
2023-04-16T07:15:26.784Z,95074.00
2023-04-16T07:16:26.816Z,95076.00
2023-04-16T07:17:26.919Z,95080.00
2023-04-16T07:18:26.934Z,95078.00
2023-04-16T07:19:26.890Z,95080.00
2023-04-16T07:20:26.942Z,95074.00
2023-04-16T07:21:26.972Z,95074.00
2023-04-16T07:22:26.949Z,95078.00
2023-04-16T07:23:26.975Z,95074.00
2023-04-16T07:24:27.002Z,95078.00
2023-04-16T07:25:27.032Z,95080.00
2023-04-16T07:26:27.029Z,95080.00
2023-04-16T07:27:27.043Z,95078.00
2023-04-16T07:28:27.052Z,95081.00
2023-04-16T07:29:27.017Z,95078.00
2023-04-16T07:30:27.057Z,95078.00
2023-04-16T07:31:27.100Z,95080.00
2023-04-16T07:32:27.213Z,95081.00
2023-04-16T07:33:27.173Z,95083.00
2023-04-16T07:34:27.199Z,95087.00
2023-04-16T07:35:27.246Z,95083.00
2023-04-16T07:36:27.247Z,95087.00
2023-04-16T07:37:27.242Z,95089.00
2023-04-16T07:38:27.271Z,95093.00
2023-04-16T07:39:27.292Z,95091.00
2023-04-16T07:40:27.365Z,95089.00
2023-04-16T07:41:27.352Z,95093.00
2023-04-16T07:42:27.446Z,95093.00
2023-04-16T07:43:27.537Z,95093.00
2023-04-16T07:44:27.593Z,95091.00
2023-04-16T07:45:27.663Z,95095.00
2023-04-16T07:46:30.723Z,95093.00
2023-04-16T07:47:28.694Z,95097.00
2023-04-16T07:48:27.650Z,95097.00
2023-04-16T07:49:27.582Z,95097.00
2023-04-16T07:50:27.673Z,95095.00
2023-04-16T07:51:27.648Z,95095.00
2023-04-16T07:52:27.608Z,95091.00
2023-04-16T07:53:27.639Z,95099.00
2023-04-16T07:54:29.071Z,95095.00
2023-04-16T07:55:27.606Z,95097.00
2023-04-16T07:56:27.575Z,95101.00
2023-04-16T07:57:27.898Z,95099.00
2023-04-16T07:58:27.568Z,95099.00
2023-04-16T07:59:27.897Z,95099.00
2023-04-16T08:00:27.691Z,95101.00
2023-04-16T08:01:27.722Z,95097.00
2023-04-16T08:02:27.848Z,95099.00
2023-04-16T08:03:28.086Z,95101.00
2023-04-16T08:04:28.032Z,95099.00
2023-04-16T08:05:27.899Z,95099.00
2023-04-16T08:06:27.904Z,95101.00
2023-04-16T08:07:27.891Z,95101.00
2023-04-16T08:08:27.904Z,95103.00
2023-04-16T08:09:27.913Z,95105.00
2023-04-16T08:10:27.931Z,95105.00
2023-04-16T08:11:27.937Z,95107.00
2023-04-16T08:12:27.898Z,95109.00
2023-04-16T08:13:27.942Z,95107.00
2023-04-16T08:14:27.964Z,95109.00
2023-04-16T08:15:28.065Z,95109.00
2023-04-16T08:16:28.138Z,95107.00
2023-04-16T08:17:28.063Z,95113.00
2023-04-16T08:18:28.130Z,95113.00
2023-04-16T08:19:28.198Z,95117.00
2023-04-16T08:20:28.293Z,95117.00
2023-04-16T08:21:28.257Z,95119.00
2023-04-16T08:22:28.317Z,95123.00
2023-04-16T08:23:28.395Z,95119.00
2023-04-16T08:24:28.348Z,95119.00
2023-04-16T08:25:28.387Z,95119.00
2023-04-16T08:26:28.386Z,95125.00
2023-04-16T08:27:28.360Z,95121.00
2023-04-16T08:28:28.366Z,95121.00
2023-04-16T08:29:28.415Z,95125.00
2023-04-16T08:30:28.390Z,95127.00
2023-04-16T08:31:28.426Z,95127.00
2023-04-16T08:32:28.418Z,95127.00
2023-04-16T08:33:28.403Z,95128.00
2023-04-16T08:34:28.392Z,95128.00
2023-04-16T08:35:28.477Z,95127.00
2023-04-16T08:36:28.433Z,95128.00
2023-04-16T08:37:28.475Z,95130.00
2023-04-16T08:38:28.493Z,95132.00
2023-04-16T08:39:28.593Z,95132.00
2023-04-16T08:40:28.554Z,95134.00
2023-04-16T08:41:28.522Z,95134.00
2023-04-16T08:42:29.168Z,95134.00
2023-04-16T08:43:28.555Z,95132.00
2023-04-16T08:44:28.580Z,95134.00
2023-04-16T08:45:28.615Z,95142.00
2023-04-16T08:46:28.673Z,95132.00
2023-04-16T08:47:28.684Z,95142.00
2023-04-16T08:48:28.705Z,95142.00
2023-04-16T08:49:28.796Z,95142.00
2023-04-16T08:50:28.819Z,95142.00
2023-04-16T08:51:28.875Z,95144.00
2023-04-16T08:52:28.946Z,95142.00
2023-04-16T08:53:29.341Z,95142.00
2023-04-16T08:54:29.054Z,95144.00
2023-04-16T08:55:29.042Z,95144.00
2023-04-16T08:56:29.069Z,95142.00
2023-04-16T08:57:29.099Z,95142.00
2023-04-16T08:58:29.137Z,95142.00
2023-04-16T08:59:29.137Z,95144.00
2023-04-16T09:00:29.140Z,95144.00
2023-04-16T09:01:29.212Z,95146.00
2023-04-16T09:02:29.337Z,95144.00
2023-04-16T09:03:29.358Z,95142.00
2023-04-16T09:04:29.535Z,95142.00
2023-04-16T09:05:29.327Z,95142.00
2023-04-16T09:06:29.286Z,95146.00
2023-04-16T09:07:29.309Z,95134.00
2023-04-16T09:08:29.358Z,95142.00
2023-04-16T09:09:29.407Z,95142.00
2023-04-16T09:10:29.427Z,95146.00
2023-04-16T09:11:29.464Z,95144.00
2023-04-16T09:12:29.433Z,95146.00
2023-04-16T09:13:29.436Z,95144.00
2023-04-16T09:14:29.470Z,95144.00
2023-04-16T09:15:29.506Z,95146.00
2023-04-16T09:16:29.513Z,95148.00
2023-04-16T09:17:29.533Z,95144.00
2023-04-16T09:18:29.477Z,95146.00
2023-04-16T09:19:29.471Z,95146.00
2023-04-16T09:20:29.545Z,95144.00
2023-04-16T09:21:29.560Z,95150.00
2023-04-16T09:22:29.552Z,95146.00
2023-04-16T09:23:29.648Z,95150.00
2023-04-16T09:24:29.622Z,95148.00
2023-04-16T09:25:29.727Z,95152.00
2023-04-16T09:26:29.653Z,95150.00
2023-04-16T09:27:29.664Z,95148.00
2023-04-16T09:28:29.683Z,95150.00
2023-04-16T09:29:29.702Z,95152.00
2023-04-16T09:30:29.721Z,95150.00
2023-04-16T09:31:29.751Z,95150.00
2023-04-16T09:32:29.789Z,95148.00
2023-04-16T09:33:29.705Z,95148.00
2023-04-16T09:34:29.740Z,95150.00
2023-04-16T09:35:29.797Z,95146.00
2023-04-16T09:36:29.761Z,95148.00
2023-04-16T09:37:29.855Z,95148.00
2023-04-16T09:38:29.775Z,95146.00
2023-04-16T09:39:29.793Z,95146.00
2023-04-16T09:40:29.796Z,95146.00
2023-04-16T09:41:29.853Z,95146.00
2023-04-16T09:42:29.864Z,95144.00
2023-04-16T09:43:29.850Z,95144.00
2023-04-16T09:44:29.860Z,95142.00
2023-04-16T09:45:29.905Z,95142.00
2023-04-16T09:46:29.892Z,95142.00
2023-04-16T09:47:29.874Z,95134.00
2023-04-16T09:48:29.950Z,95134.00
2023-04-16T09:49:29.927Z,95142.00
2023-04-16T09:50:30.053Z,95144.00
2023-04-16T09:51:30.074Z,95144.00
2023-04-16T09:52:30.159Z,95144.00
2023-04-16T09:53:30.251Z,95146.00
2023-04-16T09:54:30.248Z,95148.00
2023-04-16T09:55:30.285Z,95146.00
2023-04-16T09:56:30.284Z,95134.00
2023-04-16T09:57:30.293Z,95142.00
2023-04-16T09:58:30.289Z,95144.00
2023-04-16T09:59:30.287Z,95134.00
2023-04-16T10:00:30.293Z,95132.00
2023-04-16T10:01:30.342Z,95130.00
2023-04-16T10:02:30.433Z,95132.00
2023-04-16T10:03:30.662Z,95132.00
2023-04-16T10:04:30.496Z,95132.00
2023-04-16T10:05:30.419Z,95132.00
2023-04-16T10:06:30.431Z,95128.00
2023-04-16T10:07:30.545Z,95127.00
2023-04-16T10:08:30.408Z,95130.00
2023-04-16T10:09:30.403Z,95128.00
2023-04-16T10:10:30.526Z,95128.00
2023-04-16T10:11:30.407Z,95130.00
2023-04-16T10:12:30.467Z,95130.00
2023-04-16T10:13:30.532Z,95132.00
2023-04-16T10:14:30.543Z,95132.00
2023-04-16T10:15:30.607Z,95132.00
2023-04-16T10:16:30.623Z,95134.00
2023-04-16T10:17:30.655Z,95130.00
2023-04-16T10:18:30.605Z,95132.00
2023-04-16T10:19:30.630Z,95130.00
2023-04-16T10:20:30.730Z,95128.00
2023-04-16T10:21:30.621Z,95128.00
2023-04-16T10:22:30.645Z,95127.00
2023-04-16T10:23:30.698Z,95127.00
2023-04-16T10:24:30.764Z,95127.00
2023-04-16T10:25:30.785Z,95128.00
2023-04-16T10:26:30.774Z,95130.00
2023-04-16T10:27:30.872Z,95125.00
2023-04-16T10:28:30.788Z,95130.00
2023-04-16T10:29:30.806Z,95127.00
2023-04-16T10:30:30.797Z,95130.00
2023-04-16T10:31:30.850Z,95130.00
2023-04-16T10:32:30.838Z,95127.00
2023-04-16T10:33:30.879Z,95125.00
2023-04-16T10:34:30.846Z,95130.00
2023-04-16T10:35:32.030Z,95127.00
2023-04-16T10:36:30.879Z,95127.00
2023-04-16T10:37:30.906Z,95127.00
2023-04-16T10:38:30.997Z,95128.00
2023-04-16T10:39:31.040Z,95127.00
2023-04-16T10:40:31.099Z,95132.00
2023-04-16T10:41:31.078Z,95128.00
2023-04-16T10:42:31.137Z,95128.00
2023-04-16T10:43:31.175Z,95130.00
2023-04-16T10:44:31.226Z,95128.00
2023-04-16T10:45:31.343Z,95127.00
2023-04-16T10:46:31.422Z,95128.00
2023-04-16T10:47:31.369Z,95125.00
2023-04-16T10:48:42.338Z,95128.00
2023-04-16T10:49:32.391Z,95127.00
2023-04-16T10:50:31.428Z,95127.00
2023-04-16T10:51:31.425Z,95125.00
2023-04-16T10:52:31.363Z,95125.00
2023-04-16T10:53:31.373Z,95123.00
2023-04-16T10:54:31.377Z,95125.00
2023-04-16T10:55:31.402Z,95125.00
2023-04-16T10:56:31.334Z,95127.00
2023-04-16T10:57:32.131Z,95125.00
2023-04-16T10:58:31.361Z,95125.00
2023-04-16T10:59:31.343Z,95125.00
2023-04-16T11:00:31.656Z,95123.00
2023-04-16T11:01:31.409Z,95119.00
2023-04-16T11:02:31.544Z,95121.00
2023-04-16T11:03:31.481Z,95123.00
2023-04-16T11:04:31.483Z,95121.00
2023-04-16T11:05:31.588Z,95123.00
2023-04-16T11:06:31.583Z,95121.00
2023-04-16T11:07:31.626Z,95121.00
2023-04-16T11:08:32.056Z,95125.00
2023-04-16T11:09:31.697Z,95119.00
2023-04-16T11:10:31.812Z,95119.00
2023-04-16T11:11:31.796Z,95121.00
2023-04-16T11:12:31.803Z,95119.00
2023-04-16T11:13:31.841Z,95121.00
2023-04-16T11:14:31.832Z,95119.00
2023-04-16T11:15:31.969Z,95121.00
2023-04-16T11:16:31.950Z,95125.00
2023-04-16T11:17:32.027Z,95123.00
2023-04-16T11:18:32.095Z,95121.00
2023-04-16T11:19:32.154Z,95121.00
2023-04-16T11:20:32.161Z,95121.00
2023-04-16T11:21:32.230Z,95121.00
2023-04-16T11:22:32.260Z,95123.00
2023-04-16T11:23:32.335Z,95121.00
2023-04-16T11:24:32.365Z,95123.00
2023-04-16T11:25:32.441Z,95121.00
2023-04-16T11:26:32.737Z,95121.00
2023-04-16T11:27:32.410Z,95125.00
2023-04-16T11:28:32.389Z,95121.00
2023-04-16T11:29:32.384Z,95123.00
2023-04-16T11:30:32.410Z,95125.00
2023-04-16T11:31:32.496Z,95125.00
2023-04-16T11:32:32.494Z,95125.00
2023-04-16T11:33:32.438Z,95123.00
2023-04-16T11:34:32.435Z,95123.00
2023-04-16T11:35:32.450Z,95128.00
2023-04-16T11:36:32.515Z,95125.00
2023-04-16T11:37:32.549Z,95125.00
2023-04-16T11:38:32.591Z,95125.00
2023-04-16T11:39:32.648Z,95125.00
2023-04-16T11:40:32.748Z,95125.00
2023-04-16T11:41:32.764Z,95123.00
2023-04-16T11:42:32.823Z,95123.00
2023-04-16T11:43:32.792Z,95121.00
2023-04-16T11:44:32.795Z,95125.00